sensor_id;sensor_type;location;lat;lon;timestamp;temperature;humidity
9662;DHT22;24982;52.344;12.990;2023-04-24T00:00:42;13.60;99.90
9662;DHT22;24982;52.344;12.990;2023-04-24T00:03:47;13.70;99.90
9662;DHT22;24982;52.344;12.990;2023-04-24T00:06:49;13.60;99.90
9662;DHT22;24982;52.344;12.990;2023-04-24T00:09:54;13.60;99.90
9662;DHT22;24982;52.344;12.990;2023-04-24T00:12:56;13.60;99.90
9662;DHT22;24982;52.344;12.990;2023-04-24T00:15:58;13.60;99.90
9662;DHT22;24982;52.344;12.990;2023-04-24T00:19:01;13.60;99.90
9662;DHT22;24982;52.344;12.990;2023-04-24T00:22:04;13.60;99.90
9662;DHT22;24982;52.344;12.990;2023-04-24T00:25:06;13.70;99.90
9662;DHT22;24982;52.344;12.990;2023-04-24T00:28:08;13.70;99.90
9662;DHT22;24982;52.344;12.990;2023-04-24T00:31:10;13.80;99.90
9662;DHT22;24982;52.344;12.990;2023-04-24T00:34:14;13.80;99.90
9662;DHT22;24982;52.344;12.990;2023-04-24T00:37:16;13.80;99.90
9662;DHT22;24982;52.344;12.990;2023-04-24T00:40:19;13.80;99.90
9662;DHT22;24982;52.344;12.990;2023-04-24T00:43:21;13.80;99.90
9662;DHT22;24982;52.344;12.990;2023-04-24T00:46:23;13.80;99.90
9662;DHT22;24982;52.344;12.990;2023-04-24T00:49:27;13.90;99.90
9662;DHT22;24982;52.344;12.990;2023-04-24T00:52:29;13.90;99.90
9662;DHT22;24982;52.344;12.990;2023-04-24T00:55:32;13.90;99.90
9662;DHT22;24982;52.344;12.990;2023-04-24T00:58:34;13.80;99.90
9662;DHT22;24982;52.344;12.990;2023-04-24T01:01:36;13.80;99.90
9662;DHT22;24982;52.344;12.990;2023-04-24T01:04:40;13.70;99.90
9662;DHT22;24982;52.344;12.990;2023-04-24T01:07:44;13.50;99.90
9662;DHT22;24982;52.344;12.990;2023-04-24T01:10:50;13.40;99.90
9662;DHT22;24982;52.344;12.990;2023-04-24T01:13:53;13.40;99.90
9662;DHT22;24982;52.344;12.990;2023-04-24T01:16:55;13.50;99.90
9662;DHT22;24982;52.344;12.990;2023-04-24T01:19:59;13.50;99.90
9662;DHT22;24982;52.344;12.990;2023-04-24T01:23:07;13.40;99.90
9662;DHT22;24982;52.344;12.990;2023-04-24T01:26:09;13.50;99.90
9662;DHT22;24982;52.344;12.990;2023-04-24T01:29:11;13.60;99.90
9662;DHT22;24982;52.344;12.990;2023-04-24T01:32:17;13.50;99.90
9662;DHT22;24982;52.344;12.990;2023-04-24T01:35:20;13.60;99.90
9662;DHT22;24982;52.344;12.990;2023-04-24T01:38:23;13.60;99.90
9662;DHT22;24982;52.344;12.990;2023-04-24T01:41:27;13.60;99.90
9662;DHT22;24982;52.344;12.990;2023-04-24T01:44:30;13.60;99.90
9662;DHT22;24982;52.344;12.990;2023-04-24T01:47:32;13.60;99.90
9662;DHT22;24982;52.344;12.990;2023-04-24T01:50:34;13.50;99.90
9662;DHT22;24982;52.344;12.990;2023-04-24T01:53:39;13.40;99.90
9662;DHT22;24982;52.344;12.990;2023-04-24T01:56:42;13.40;99.90
9662;DHT22;24982;52.344;12.990;2023-04-24T01:59:44;13.40;99.90
9662;DHT22;24982;52.344;12.990;2023-04-24T02:02:47;13.40;99.90
9662;DHT22;24982;52.344;12.990;2023-04-24T02:05:49;13.30;99.90
9662;DHT22;24982;52.344;12.990;2023-04-24T02:08:52;13.30;99.90
9662;DHT22;24982;52.344;12.990;2023-04-24T02:11:54;13.30;99.90
9662;DHT22;24982;52.344;12.990;2023-04-24T02:14:58;13.40;99.90
9662;DHT22;24982;52.344;12.990;2023-04-24T02:18:00;13.40;99.90
9662;DHT22;24982;52.344;12.990;2023-04-24T02:21:02;13.30;99.90
9662;DHT22;24982;52.344;12.990;2023-04-24T02:24:06;13.30;99.90
9662;DHT22;24982;52.344;12.990;2023-04-24T02:27:08;13.20;99.90
9662;DHT22;24982;52.344;12.990;2023-04-24T02:30:11;13.00;99.90
9662;DHT22;24982;52.344;12.990;2023-04-24T02:33:13;13.00;99.90
9662;DHT22;24982;52.344;12.990;2023-04-24T02:36:15;13.00;99.90
9662;DHT22;24982;52.344;12.990;2023-04-24T02:39:18;13.00;99.90
9662;DHT22;24982;52.344;12.990;2023-04-24T02:42:20;13.10;99.90
9662;DHT22;24982;52.344;12.990;2023-04-24T02:45:22;13.10;99.90
9662;DHT22;24982;52.344;12.990;2023-04-24T02:48:24;13.20;99.90
9662;DHT22;24982;52.344;12.990;2023-04-24T02:51:26;13.30;99.90
9662;DHT22;24982;52.344;12.990;2023-04-24T02:54:29;13.10;99.90
9662;DHT22;24982;52.344;12.990;2023-04-24T02:57:31;13.10;99.90
9662;DHT22;24982;52.344;12.990;2023-04-24T03:00:33;13.10;99.90
9662;DHT22;24982;52.344;12.990;2023-04-24T03:03:36;13.10;99.90
9662;DHT22;24982;52.344;12.990;2023-04-24T03:06:38;13.30;99.90
9662;DHT22;24982;52.344;12.990;2023-04-24T03:09:41;13.30;99.90
9662;DHT22;24982;52.344;12.990;2023-04-24T03:12:43;13.30;99.90
9662;DHT22;24982;52.344;12.990;2023-04-24T03:15:45;13.40;99.90
9662;DHT22;24982;52.344;12.990;2023-04-24T03:18:47;13.40;99.90
9662;DHT22;24982;52.344;12.990;2023-04-24T03:21:50;13.40;99.90
9662;DHT22;24982;52.344;12.990;2023-04-24T03:24:53;13.40;99.90
9662;DHT22;24982;52.344;12.990;2023-04-24T03:27:57;13.50;99.90
9662;DHT22;24982;52.344;12.990;2023-04-24T03:31:13;13.40;99.90
9662;DHT22;24982;52.344;12.990;2023-04-24T03:34:16;13.50;99.90
9662;DHT22;24982;52.344;12.990;2023-04-24T03:37:19;13.50;99.90
9662;DHT22;24982;52.344;12.990;2023-04-24T03:40:32;13.50;99.90
9662;DHT22;24982;52.344;12.990;2023-04-24T03:43:35;13.50;99.90
9662;DHT22;24982;52.344;12.990;2023-04-24T03:46:38;13.50;99.90
9662;DHT22;24982;52.344;12.990;2023-04-24T03:49:41;13.40;99.90
9662;DHT22;24982;52.344;12.990;2023-04-24T03:52:44;13.30;99.90
9662;DHT22;24982;52.344;12.990;2023-04-24T03:56:04;13.30;99.90
9662;DHT22;24982;52.344;12.990;2023-04-24T03:59:07;13.30;99.90
9662;DHT22;24982;52.344;12.990;2023-04-24T04:02:10;13.30;99.90
9662;DHT22;24982;52.344;12.990;2023-04-24T04:05:13;13.40;99.90
9662;DHT22;24982;52.344;12.990;2023-04-24T04:08:16;13.30;99.90
9662;DHT22;24982;52.344;12.990;2023-04-24T04:11:19;13.20;99.90
9662;DHT22;24982;52.344;12.990;2023-04-24T04:14:21;13.20;99.90
9662;DHT22;24982;52.344;12.990;2023-04-24T04:17:23;13.00;99.90
9662;DHT22;24982;52.344;12.990;2023-04-24T04:20:26;13.00;99.90
9662;DHT22;24982;52.344;12.990;2023-04-24T04:23:28;13.10;99.90
9662;DHT22;24982;52.344;12.990;2023-04-24T04:26:57;13.00;99.90
9662;DHT22;24982;52.344;12.990;2023-04-24T04:30:04;13.00;99.90
9662;DHT22;24982;52.344;12.990;2023-04-24T04:33:15;12.90;99.90
9662;DHT22;24982;52.344;12.990;2023-04-24T04:36:17;12.80;99.90
9662;DHT22;24982;52.344;12.990;2023-04-24T04:39:25;12.80;99.90
9662;DHT22;24982;52.344;12.990;2023-04-24T04:42:42;12.80;99.90
9662;DHT22;24982;52.344;12.990;2023-04-24T04:45:47;12.90;99.90
9662;DHT22;24982;52.344;12.990;2023-04-24T04:48:57;13.00;99.90
9662;DHT22;24982;52.344;12.990;2023-04-24T04:52:00;13.00;99.90
9662;DHT22;24982;52.344;12.990;2023-04-24T04:55:03;13.00;99.90
9662;DHT22;24982;52.344;12.990;2023-04-24T04:58:27;13.00;99.90
9662;DHT22;24982;52.344;12.990;2023-04-24T05:01:32;13.00;99.90
9662;DHT22;24982;52.344;12.990;2023-04-24T05:04:34;13.00;99.90
9662;DHT22;24982;52.344;12.990;2023-04-24T05:07:36;13.00;99.90
9662;DHT22;24982;52.344;12.990;2023-04-24T05:10:39;13.00;99.90
9662;DHT22;24982;52.344;12.990;2023-04-24T05:13:42;13.10;99.90
9662;DHT22;24982;52.344;12.990;2023-04-24T05:16:54;13.10;99.90
9662;DHT22;24982;52.344;12.990;2023-04-24T05:19:59;13.10;99.90
9662;DHT22;24982;52.344;12.990;2023-04-24T05:23:03;13.10;99.90
9662;DHT22;24982;52.344;12.990;2023-04-24T05:26:05;13.10;99.90
9662;DHT22;24982;52.344;12.990;2023-04-24T05:29:08;13.20;99.90
9662;DHT22;24982;52.344;12.990;2023-04-24T05:32:10;13.10;99.90
9662;DHT22;24982;52.344;12.990;2023-04-24T05:35:12;13.10;99.90
9662;DHT22;24982;52.344;12.990;2023-04-24T05:38:15;13.10;99.90
9662;DHT22;24982;52.344;12.990;2023-04-24T05:41:18;13.10;99.90
9662;DHT22;24982;52.344;12.990;2023-04-24T05:44:23;13.20;99.90
9662;DHT22;24982;52.344;12.990;2023-04-24T05:47:25;13.30;99.90
9662;DHT22;24982;52.344;12.990;2023-04-24T05:50:28;13.30;99.90
9662;DHT22;24982;52.344;12.990;2023-04-24T05:53:30;13.40;99.90
9662;DHT22;24982;52.344;12.990;2023-04-24T05:56:32;13.50;99.90
9662;DHT22;24982;52.344;12.990;2023-04-24T05:59:38;13.50;99.90
9662;DHT22;24982;52.344;12.990;2023-04-24T06:02:41;13.50;99.90
9662;DHT22;24982;52.344;12.990;2023-04-24T06:05:46;13.60;99.90
9662;DHT22;24982;52.344;12.990;2023-04-24T06:08:48;13.60;99.90
9662;DHT22;24982;52.344;12.990;2023-04-24T06:11:50;13.70;99.90
9662;DHT22;24982;52.344;12.990;2023-04-24T06:14:58;13.70;99.90
9662;DHT22;24982;52.344;12.990;2023-04-24T06:18:14;13.70;99.90
9662;DHT22;24982;52.344;12.990;2023-04-24T06:21:16;13.80;99.90
9662;DHT22;24982;52.344;12.990;2023-04-24T06:24:19;13.90;99.90
9662;DHT22;24982;52.344;12.990;2023-04-24T06:27:21;14.10;99.90
9662;DHT22;24982;52.344;12.990;2023-04-24T06:30:24;14.20;99.90
9662;DHT22;24982;52.344;12.990;2023-04-24T06:33:27;14.10;99.90
9662;DHT22;24982;52.344;12.990;2023-04-24T06:36:29;14.00;99.90
9662;DHT22;24982;52.344;12.990;2023-04-24T06:39:33;14.00;99.90
9662;DHT22;24982;52.344;12.990;2023-04-24T06:42:35;13.90;99.90
9662;DHT22;24982;52.344;12.990;2023-04-24T06:45:39;14.00;99.90
9662;DHT22;24982;52.344;12.990;2023-04-24T06:48:41;14.10;99.90
9662;DHT22;24982;52.344;12.990;2023-04-24T06:51:43;14.20;99.90
9662;DHT22;24982;52.344;12.990;2023-04-24T06:54:45;14.20;99.90
9662;DHT22;24982;52.344;12.990;2023-04-24T06:57:47;14.20;99.90
9662;DHT22;24982;52.344;12.990;2023-04-24T07:00:51;14.20;99.90
9662;DHT22;24982;52.344;12.990;2023-04-24T07:03:53;14.30;99.90
9662;DHT22;24982;52.344;12.990;2023-04-24T07:06:55;14.30;99.90
9662;DHT22;24982;52.344;12.990;2023-04-24T07:09:58;14.50;99.90
9662;DHT22;24982;52.344;12.990;2023-04-24T07:13:00;14.70;99.90
9662;DHT22;24982;52.344;12.990;2023-04-24T07:16:05;14.70;99.90
9662;DHT22;24982;52.344;12.990;2023-04-24T07:19:07;14.80;99.90
9662;DHT22;24982;52.344;12.990;2023-04-24T07:22:09;14.90;99.90
9662;DHT22;24982;52.344;12.990;2023-04-24T07:25:17;14.90;99.90
9662;DHT22;24982;52.344;12.990;2023-04-24T07:28:19;15.00;99.90
9662;DHT22;24982;52.344;12.990;2023-04-24T07:31:22;15.00;99.90
9662;DHT22;24982;52.344;12.990;2023-04-24T07:34:24;15.30;99.90
9662;DHT22;24982;52.344;12.990;2023-04-24T07:37:26;15.20;99.90
9662;DHT22;24982;52.344;12.990;2023-04-24T07:40:29;15.30;99.90
9662;DHT22;24982;52.344;12.990;2023-04-24T07:43:31;15.30;99.90
9662;DHT22;24982;52.344;12.990;2023-04-24T07:46:35;15.40;99.90
9662;DHT22;24982;52.344;12.990;2023-04-24T07:49:37;15.50;99.90
9662;DHT22;24982;52.344;12.990;2023-04-24T07:52:39;15.50;99.90
9662;DHT22;24982;52.344;12.990;2023-04-24T07:55:40;15.50;99.90
9662;DHT22;24982;52.344;12.990;2023-04-24T07:58:42;15.60;99.90
9662;DHT22;24982;52.344;12.990;2023-04-24T08:01:46;15.60;99.90
9662;DHT22;24982;52.344;12.990;2023-04-24T08:04:48;15.50;99.90
9662;DHT22;24982;52.344;12.990;2023-04-24T08:07:50;15.60;99.90
9662;DHT22;24982;52.344;12.990;2023-04-24T08:10:52;15.80;99.90
9662;DHT22;24982;52.344;12.990;2023-04-24T08:13:54;15.70;99.90
9662;DHT22;24982;52.344;12.990;2023-04-24T08:16:57;15.90;99.90
9662;DHT22;24982;52.344;12.990;2023-04-24T08:20:00;15.80;99.90
9662;DHT22;24982;52.344;12.990;2023-04-24T08:23:03;15.80;99.90
9662;DHT22;24982;52.344;12.990;2023-04-24T08:26:05;15.70;99.90
9662;DHT22;24982;52.344;12.990;2023-04-24T08:29:08;15.70;99.90
9662;DHT22;24982;52.344;12.990;2023-04-24T08:32:11;15.60;99.90
9662;DHT22;24982;52.344;12.990;2023-04-24T08:35:13;15.60;99.90
9662;DHT22;24982;52.344;12.990;2023-04-24T08:38:15;15.60;99.90
9662;DHT22;24982;52.344;12.990;2023-04-24T08:41:18;15.70;99.90
9662;DHT22;24982;52.344;12.990;2023-04-24T08:44:20;15.70;99.90
9662;DHT22;24982;52.344;12.990;2023-04-24T08:47:23;15.80;99.90
9662;DHT22;24982;52.344;12.990;2023-04-24T08:50:27;16.00;99.90
9662;DHT22;24982;52.344;12.990;2023-04-24T08:53:30;16.00;99.90
9662;DHT22;24982;52.344;12.990;2023-04-24T08:56:34;16.00;99.90
9662;DHT22;24982;52.344;12.990;2023-04-24T08:59:39;15.70;99.90
9662;DHT22;24982;52.344;12.990;2023-04-24T09:02:44;15.60;99.90
9662;DHT22;24982;52.344;12.990;2023-04-24T09:05:48;15.40;99.90
9662;DHT22;24982;52.344;12.990;2023-04-24T09:08:52;15.30;99.90
9662;DHT22;24982;52.344;12.990;2023-04-24T09:11:56;15.30;99.90
9662;DHT22;24982;52.344;12.990;2023-04-24T09:14:59;15.30;99.90
9662;DHT22;24982;52.344;12.990;2023-04-24T09:18:04;15.50;99.90
9662;DHT22;24982;52.344;12.990;2023-04-24T09:21:08;15.60;99.90
9662;DHT22;24982;52.344;12.990;2023-04-24T09:24:15;15.70;99.90
9662;DHT22;24982;52.344;12.990;2023-04-24T09:27:18;16.10;99.90
9662;DHT22;24982;52.344;12.990;2023-04-24T09:30:21;16.30;99.90
9662;DHT22;24982;52.344;12.990;2023-04-24T09:33:25;16.30;99.90
9662;DHT22;24982;52.344;12.990;2023-04-24T09:36:28;16.30;99.90
9662;DHT22;24982;52.344;12.990;2023-04-24T09:39:32;16.60;99.90
9662;DHT22;24982;52.344;12.990;2023-04-24T09:42:34;16.90;99.90
9662;DHT22;24982;52.344;12.990;2023-04-24T09:45:37;16.70;99.90
9662;DHT22;24982;52.344;12.990;2023-04-24T09:48:41;16.50;99.90
9662;DHT22;24982;52.344;12.990;2023-04-24T09:51:43;16.20;99.90
9662;DHT22;24982;52.344;12.990;2023-04-24T09:54:52;15.90;99.90
9662;DHT22;24982;52.344;12.990;2023-04-24T09:57:56;15.70;99.90
9662;DHT22;24982;52.344;12.990;2023-04-24T10:00:58;15.90;99.90
9662;DHT22;24982;52.344;12.990;2023-04-24T10:04:02;15.90;99.90
9662;DHT22;24982;52.344;12.990;2023-04-24T10:07:04;15.80;99.90
9662;DHT22;24982;52.344;12.990;2023-04-24T10:10:07;15.80;99.90
9662;DHT22;24982;52.344;12.990;2023-04-24T10:13:10;15.70;99.90
9662;DHT22;24982;52.344;12.990;2023-04-24T10:16:13;15.90;99.90
9662;DHT22;24982;52.344;12.990;2023-04-24T10:19:17;16.10;99.90
9662;DHT22;24982;52.344;12.990;2023-04-24T10:22:21;16.70;99.90
9662;DHT22;24982;52.344;12.990;2023-04-24T10:25:25;16.80;99.90
9662;DHT22;24982;52.344;12.990;2023-04-24T10:28:28;16.80;99.90
9662;DHT22;24982;52.344;12.990;2023-04-24T10:31:32;16.70;99.90
9662;DHT22;24982;52.344;12.990;2023-04-24T10:34:36;16.50;99.90
9662;DHT22;24982;52.344;12.990;2023-04-24T10:37:39;16.10;99.90
9662;DHT22;24982;52.344;12.990;2023-04-24T10:40:42;15.40;99.90
9662;DHT22;24982;52.344;12.990;2023-04-24T10:43:44;15.20;99.90
9662;DHT22;24982;52.344;12.990;2023-04-24T10:46:47;15.00;99.90
9662;DHT22;24982;52.344;12.990;2023-04-24T10:49:59;14.90;99.90
9662;DHT22;24982;52.344;12.990;2023-04-24T10:53:11;15.30;99.90
9662;DHT22;24982;52.344;12.990;2023-04-24T10:56:16;15.50;99.90
9662;DHT22;24982;52.344;12.990;2023-04-24T10:59:25;15.90;99.90
9662;DHT22;24982;52.344;12.990;2023-04-24T11:02:36;16.40;99.90
9662;DHT22;24982;52.344;12.990;2023-04-24T11:05:58;17.00;99.90
9662;DHT22;24982;52.344;12.990;2023-04-24T11:09:04;17.50;99.90
9662;DHT22;24982;52.344;12.990;2023-04-24T11:12:08;17.40;99.90
9662;DHT22;24982;52.344;12.990;2023-04-24T11:15:11;17.70;99.90
9662;DHT22;24982;52.344;12.990;2023-04-24T11:18:14;17.90;99.90
9662;DHT22;24982;52.344;12.990;2023-04-24T11:21:18;18.10;99.90
9662;DHT22;24982;52.344;12.990;2023-04-24T11:24:28;18.60;99.90
9662;DHT22;24982;52.344;12.990;2023-04-24T11:27:33;19.00;99.90
9662;DHT22;24982;52.344;12.990;2023-04-24T11:30:40;19.00;99.90
9662;DHT22;24982;52.344;12.990;2023-04-24T11:33:42;19.30;99.90
9662;DHT22;24982;52.344;12.990;2023-04-24T11:36:45;19.20;99.90
9662;DHT22;24982;52.344;12.990;2023-04-24T11:39:51;19.30;99.90
9662;DHT22;24982;52.344;12.990;2023-04-24T11:42:54;19.30;99.90
9662;DHT22;24982;52.344;12.990;2023-04-24T11:45:59;19.00;99.90
9662;DHT22;24982;52.344;12.990;2023-04-24T11:49:01;18.90;99.90
9662;DHT22;24982;52.344;12.990;2023-04-24T11:52:05;18.90;99.90
9662;DHT22;24982;52.344;12.990;2023-04-24T11:55:12;19.20;99.90
9662;DHT22;24982;52.344;12.990;2023-04-24T11:58:24;19.40;99.90
9662;DHT22;24982;52.344;12.990;2023-04-24T12:01:28;19.20;99.90
9662;DHT22;24982;52.344;12.990;2023-04-24T12:04:38;19.60;99.90
9662;DHT22;24982;52.344;12.990;2023-04-24T12:07:42;19.90;99.90
9662;DHT22;24982;52.344;12.990;2023-04-24T12:10:44;20.00;99.90
9662;DHT22;24982;52.344;12.990;2023-04-24T12:13:52;20.40;99.90
9662;DHT22;24982;52.344;12.990;2023-04-24T12:16:55;20.30;99.90
9662;DHT22;24982;52.344;12.990;2023-04-24T12:19:58;19.90;99.90
9662;DHT22;24982;52.344;12.990;2023-04-24T12:23:03;19.50;99.90
9662;DHT22;24982;52.344;12.990;2023-04-24T12:26:05;19.10;98.90
9662;DHT22;24982;52.344;12.990;2023-04-24T12:29:07;19.30;98.90
9662;DHT22;24982;52.344;12.990;2023-04-24T12:32:16;19.80;98.20
9662;DHT22;24982;52.344;12.990;2023-04-24T12:35:20;20.00;98.50
9662;DHT22;24982;52.344;12.990;2023-04-24T12:38:25;19.60;97.80
9662;DHT22;24982;52.344;12.990;2023-04-24T12:41:30;19.10;98.30
9662;DHT22;24982;52.344;12.990;2023-04-24T12:44:33;18.70;98.20
9662;DHT22;24982;52.344;12.990;2023-04-24T12:47:37;18.90;99.10
9662;DHT22;24982;52.344;12.990;2023-04-24T12:50:40;19.00;99.80
9662;DHT22;24982;52.344;12.990;2023-04-24T12:53:43;19.40;97.70
9662;DHT22;24982;52.344;12.990;2023-04-24T12:56:45;19.80;96.30
9662;DHT22;24982;52.344;12.990;2023-04-24T12:59:47;20.00;95.90
9662;DHT22;24982;52.344;12.990;2023-04-24T13:02:49;19.80;93.90
9662;DHT22;24982;52.344;12.990;2023-04-24T13:05:51;19.50;94.10
9662;DHT22;24982;52.344;12.990;2023-04-24T13:08:55;19.50;95.20
9662;DHT22;24982;52.344;12.990;2023-04-24T13:11:58;19.60;93.60
9662;DHT22;24982;52.344;12.990;2023-04-24T13:15:01;20.00;93.00
9662;DHT22;24982;52.344;12.990;2023-04-24T13:18:04;20.00;92.50
9662;DHT22;24982;52.344;12.990;2023-04-24T13:21:06;20.30;91.60
9662;DHT22;24982;52.344;12.990;2023-04-24T13:24:09;20.20;90.60
9662;DHT22;24982;52.344;12.990;2023-04-24T13:27:11;20.30;92.40
9662;DHT22;24982;52.344;12.990;2023-04-24T13:30:13;20.50;90.00
9662;DHT22;24982;52.344;12.990;2023-04-24T13:33:15;20.50;90.40
9662;DHT22;24982;52.344;12.990;2023-04-24T13:36:17;20.60;89.10
9662;DHT22;24982;52.344;12.990;2023-04-24T13:39:21;20.80;90.30
9662;DHT22;24982;52.344;12.990;2023-04-24T13:42:23;20.80;89.40
9662;DHT22;24982;52.344;12.990;2023-04-24T13:45:25;20.60;89.90
9662;DHT22;24982;52.344;12.990;2023-04-24T13:48:27;20.50;90.50
9662;DHT22;24982;52.344;12.990;2023-04-24T13:51:29;20.70;90.80
9662;DHT22;24982;52.344;12.990;2023-04-24T13:54:32;20.60;90.70
9662;DHT22;24982;52.344;12.990;2023-04-24T13:57:34;20.10;89.40
9662;DHT22;24982;52.344;12.990;2023-04-24T14:00:37;19.90;91.20
9662;DHT22;24982;52.344;12.990;2023-04-24T14:03:39;19.90;87.70
9662;DHT22;24982;52.344;12.990;2023-04-24T14:06:41;19.50;86.60
9662;DHT22;24982;52.344;12.990;2023-04-24T14:09:44;19.10;88.60
9662;DHT22;24982;52.344;12.990;2023-04-24T14:12:46;18.80;92.30
9662;DHT22;24982;52.344;12.990;2023-04-24T14:15:48;18.60;93.80
9662;DHT22;24982;52.344;12.990;2023-04-24T14:18:50;18.40;94.00
9662;DHT22;24982;52.344;12.990;2023-04-24T14:21:52;18.30;99.10
9662;DHT22;24982;52.344;12.990;2023-04-24T14:24:57;18.20;98.90
9662;DHT22;24982;52.344;12.990;2023-04-24T14:27:59;18.10;99.90
9662;DHT22;24982;52.344;12.990;2023-04-24T14:31:01;18.00;99.90
9662;DHT22;24982;52.344;12.990;2023-04-24T14:34:03;18.00;99.90
9662;DHT22;24982;52.344;12.990;2023-04-24T14:37:05;18.00;99.90
9662;DHT22;24982;52.344;12.990;2023-04-24T14:40:10;18.20;99.90
9662;DHT22;24982;52.344;12.990;2023-04-24T14:43:12;18.10;99.90
9662;DHT22;24982;52.344;12.990;2023-04-24T14:46:14;18.00;99.90
9662;DHT22;24982;52.344;12.990;2023-04-24T14:49:16;17.90;99.90
9662;DHT22;24982;52.344;12.990;2023-04-24T14:52:18;17.90;99.90
9662;DHT22;24982;52.344;12.990;2023-04-24T14:58:24;17.60;92.50
9662;DHT22;24982;52.344;12.990;2023-04-24T15:01:26;17.40;94.20
9662;DHT22;24982;52.344;12.990;2023-04-24T15:04:28;17.40;93.00
9662;DHT22;24982;52.344;12.990;2023-04-24T15:07:31;17.30;92.90
9662;DHT22;24982;52.344;12.990;2023-04-24T15:10:35;17.20;92.90
9662;DHT22;24982;52.344;12.990;2023-04-24T15:13:37;17.30;93.20
9662;DHT22;24982;52.344;12.990;2023-04-24T15:19:41;17.40;90.70
9662;DHT22;24982;52.344;12.990;2023-04-24T15:22:43;17.40;90.90
9662;DHT22;24982;52.344;12.990;2023-04-24T15:25:46;17.40;91.40
9662;DHT22;24982;52.344;12.990;2023-04-24T15:28:49;17.50;91.20
9662;DHT22;24982;52.344;12.990;2023-04-24T15:31:52;17.40;92.00
9662;DHT22;24982;52.344;12.990;2023-04-24T15:34:54;17.40;91.20
9662;DHT22;24982;52.344;12.990;2023-04-24T15:37:56;17.30;91.50
9662;DHT22;24982;52.344;12.990;2023-04-24T15:40:59;17.20;91.60
9662;DHT22;24982;52.344;12.990;2023-04-24T15:44:01;17.10;92.10
9662;DHT22;24982;52.344;12.990;2023-04-24T15:47:03;17.20;92.10
9662;DHT22;24982;52.344;12.990;2023-04-24T15:50:06;17.10;92.70
9662;DHT22;24982;52.344;12.990;2023-04-24T15:53:10;17.10;93.10
9662;DHT22;24982;52.344;12.990;2023-04-24T15:56:13;16.90;93.00
9662;DHT22;24982;52.344;12.990;2023-04-24T15:59:16;16.60;93.00
9662;DHT22;24982;52.344;12.990;2023-04-24T16:02:18;16.50;94.20
9662;DHT22;24982;52.344;12.990;2023-04-24T16:05:20;16.40;94.10
9662;DHT22;24982;52.344;12.990;2023-04-24T16:08:23;16.30;95.20
9662;DHT22;24982;52.344;12.990;2023-04-24T16:11:27;16.10;97.50
9662;DHT22;24982;52.344;12.990;2023-04-24T16:14:29;15.90;98.40
9662;DHT22;24982;52.344;12.990;2023-04-24T16:17:31;15.80;99.70
9662;DHT22;24982;52.344;12.990;2023-04-24T16:20:33;15.80;99.90
9662;DHT22;24982;52.344;12.990;2023-04-24T16:23:34;15.70;99.90
9662;DHT22;24982;52.344;12.990;2023-04-24T16:26:38;15.40;99.90
9662;DHT22;24982;52.344;12.990;2023-04-24T16:29:40;15.40;99.90
9662;DHT22;24982;52.344;12.990;2023-04-24T16:32:42;15.20;99.90
9662;DHT22;24982;52.344;12.990;2023-04-24T16:35:44;15.10;99.90
9662;DHT22;24982;52.344;12.990;2023-04-24T16:38:46;15.10;99.90
9662;DHT22;24982;52.344;12.990;2023-04-24T16:41:50;15.00;99.90
9662;DHT22;24982;52.344;12.990;2023-04-24T16:44:53;14.90;99.90
9662;DHT22;24982;52.344;12.990;2023-04-24T16:47:55;15.00;99.90
9662;DHT22;24982;52.344;12.990;2023-04-24T16:50:57;14.90;99.90
9662;DHT22;24982;52.344;12.990;2023-04-24T16:53:59;14.90;99.90
9662;DHT22;24982;52.344;12.990;2023-04-24T16:57:03;15.00;99.90
9662;DHT22;24982;52.344;12.990;2023-04-24T17:00:08;14.90;99.90
9662;DHT22;24982;52.344;12.990;2023-04-24T17:03:10;14.90;99.90
9662;DHT22;24982;52.344;12.990;2023-04-24T17:06:12;14.80;99.90
9662;DHT22;24982;52.344;12.990;2023-04-24T17:09:14;14.80;99.90
9662;DHT22;24982;52.344;12.990;2023-04-24T17:12:18;14.90;99.90
9662;DHT22;24982;52.344;12.990;2023-04-24T17:15:20;14.90;99.90
9662;DHT22;24982;52.344;12.990;2023-04-24T17:18:22;14.90;99.90
9662;DHT22;24982;52.344;12.990;2023-04-24T17:21:24;14.80;99.90
9662;DHT22;24982;52.344;12.990;2023-04-24T17:24:27;14.50;99.90
9662;DHT22;24982;52.344;12.990;2023-04-24T17:27:30;14.50;99.90
9662;DHT22;24982;52.344;12.990;2023-04-24T17:30:32;14.50;99.90
9662;DHT22;24982;52.344;12.990;2023-04-24T17:33:34;14.50;99.90
9662;DHT22;24982;52.344;12.990;2023-04-24T17:36:36;14.40;99.90
9662;DHT22;24982;52.344;12.990;2023-04-24T17:39:38;14.30;99.90
9662;DHT22;24982;52.344;12.990;2023-04-24T17:42:42;14.30;99.90
9662;DHT22;24982;52.344;12.990;2023-04-24T17:45:44;14.30;99.90
9662;DHT22;24982;52.344;12.990;2023-04-24T17:48:46;14.20;99.90
9662;DHT22;24982;52.344;12.990;2023-04-24T17:51:48;14.10;99.90
9662;DHT22;24982;52.344;12.990;2023-04-24T17:54:50;14.00;99.90
9662;DHT22;24982;52.344;12.990;2023-04-24T17:57:54;14.10;99.90
9662;DHT22;24982;52.344;12.990;2023-04-24T18:00:56;14.10;99.90
9662;DHT22;24982;52.344;12.990;2023-04-24T18:03:58;13.90;99.90
9662;DHT22;24982;52.344;12.990;2023-04-24T18:07:00;13.70;99.90
9662;DHT22;24982;52.344;12.990;2023-04-24T18:10:02;13.70;99.90
9662;DHT22;24982;52.344;12.990;2023-04-24T18:13:05;13.50;99.90
9662;DHT22;24982;52.344;12.990;2023-04-24T18:16:07;13.40;99.90
9662;DHT22;24982;52.344;12.990;2023-04-24T18:19:09;13.50;99.90
9662;DHT22;24982;52.344;12.990;2023-04-24T18:22:11;13.50;99.90
9662;DHT22;24982;52.344;12.990;2023-04-24T18:25:14;13.50;99.90
9662;DHT22;24982;52.344;12.990;2023-04-24T18:28:18;13.50;99.90
9662;DHT22;24982;52.344;12.990;2023-04-24T18:31:20;13.50;99.90
9662;DHT22;24982;52.344;12.990;2023-04-24T18:34:23;13.40;99.90
9662;DHT22;24982;52.344;12.990;2023-04-24T18:37:25;13.40;99.90
9662;DHT22;24982;52.344;12.990;2023-04-24T18:40:28;13.30;99.90
9662;DHT22;24982;52.344;12.990;2023-04-24T18:43:31;13.30;99.90
9662;DHT22;24982;52.344;12.990;2023-04-24T18:46:33;13.20;99.90
9662;DHT22;24982;52.344;12.990;2023-04-24T18:49:40;13.10;99.90
9662;DHT22;24982;52.344;12.990;2023-04-24T18:52:42;13.10;99.90
9662;DHT22;24982;52.344;12.990;2023-04-24T18:55:44;13.10;99.90
9662;DHT22;24982;52.344;12.990;2023-04-24T18:58:48;13.00;99.90
9662;DHT22;24982;52.344;12.990;2023-04-24T19:01:51;13.10;99.90
9662;DHT22;24982;52.344;12.990;2023-04-24T19:04:53;13.10;99.90
9662;DHT22;24982;52.344;12.990;2023-04-24T19:07:55;13.10;99.90
9662;DHT22;24982;52.344;12.990;2023-04-24T19:10:57;13.00;99.90
9662;DHT22;24982;52.344;12.990;2023-04-24T19:14:00;13.00;99.90
9662;DHT22;24982;52.344;12.990;2023-04-24T19:17:05;13.00;99.90
9662;DHT22;24982;52.344;12.990;2023-04-24T19:20:08;13.00;99.90
9662;DHT22;24982;52.344;12.990;2023-04-24T19:23:10;13.00;99.90